Billings Logan International Airport
KBIL : now visible

Airfield :











YOU CAN JOIN US ON...

 
LOGIN :

Register | Disclaimer

   EN    FR    IT 

 









Legend :    VFR   Marginal VFR   IFR   Intensive IFR   Very Intensive IFR
Visi :
Ceiling :
>= 8 km
>= 3000ft
5 to 8 km
1000 to 3000 ft
1500m to 5 km
500 to 1000 ft
800 to 1500m
200 to 500 ft
< 800m
< 200 ft
Symbols :   Thunderstorms  Fog  Heavy snow  Heavy precipitations  Wind > 20 kt







- Airport Elevation : 3652 ft
- IATA code : BIL


KBIL - Billings Logan International

CURRENT METAR :
  • 230853Z 26003KT 10SM -RA BKN090 OVC100 17/13 A3000 RMK AO2 RAB27 SLP120 P0001 60001 T01720128 51020 $

EXPIRED METARs :
  • 230753Z 34004KT 10SM BKN100 17/13 A2998 RMK AO2 SLP114 T01720128 $
  • 230653Z 21004KT 10SM FEW070 FEW100 17/13 A2996 RMK AO2 SLP110 OCNL LTG DSNT NE CB DSNT NE T01720128 403280167 $

TAF KBIL
Valid from the 23 at 08:00 until the 24 at 06:00 UTC


230820Z 2308/2406 31009KT P6SM VCSH BKN090
TEMPO 2308/2310 -SHRA BKN050
FM231500 VRB06KT P6SM BKN050
FM231900 07008KT P6SM SCT050 BKN100
FM240400 20007KT P6SM SKC
No reported NOTAMs for that airfield.



MET'MAP, your aeronautical weather chart ! - Copyright ORBIFLY December 2007 - Disclaimer

ORBIFLY MET'MAP TEAM :

Programming & Development : Alexandra Zaïnal
Concept & Development : Baudouin d'Aumeries
Co-Development & Prog : Marc-Olivier Méhu
Technical & hardware support : Manuel Goepfert

Contact : metmap@orbifly.com




SOURCES & CREDITS :

   NOAA       Earth
Advisory